Wardeh — ODUS — position and weather

sailwx.info

Track history (hours):
 
Tides and Currents Weather Stations Pressure Air Temp Water Temp Dewpoint Dewpoint Depression Visibility Wind Speed Wind Dir Waves Ship Positions

Wardeh

Last reported at 2016-Jun-25 18:24 UTC. Time now 2016-Jun-29 16:29 UTC.
Position N 36°33' E 015°46'.

; draft 7 m.

Type: Cargo ship. MMSI: 450522000.

Date/timePositionNaut miles runAvg speedWind from/ knotsBaromVisibWave heightAir tempDewpointWater temp
2016-Jun-25 18:24N 36°33' E 015°46'1314.9
2016-Jun-25 17:33N 36°34' E 015°31'1514.9
2016-Jun-25 16:33N 36°34' E 015°12'1514.5
2016-Jun-25 15:33N 36°36' E 014°54'1514.8
2016-Jun-25 14:33N 36°40' E 014°36'1515.2
2016-Jun-25 13:33N 36°43' E 014°18'1615.5
2016-Jun-25 12:33N 36°47' E 013°59'1515.1
2016-Jun-25 11:33N 36°51' E 013°41'1514.9
2016-Jun-25 10:33N 36°54' E 013°23'1514.8
2016-Jun-25 09:33N 36°58' E 013°05'2114.8
2016-Jun-25 08:07N 37°03' E 012°39'815.2
2016-Jun-25 07:33N 37°05' E 012°29'39914.8
2016-Jun-24 04:33N 37°04' E 004°08'1414.0
2016-Jun-24 03:33N 37°02' E 003°51'1614.1
2016-Jun-24 02:25N 36°60' E 003°31'1213.6
2016-Jun-24 01:33N 36°58' E 003°16'1413.3
2016-Jun-24 00:31N 36°56' E 002°59'1414.3
2016-Jun-23 23:33N 36°54' E 002°42'1614.8
2016-Jun-23 22:29N 36°52' E 002°23'1414.6
2016-Jun-23 21:33N 36°50' E 002°06'1514.5
2016-Jun-23 20:29N 36°48' E 001°47'1414.5
2016-Jun-23 19:33N 36°46' E 001°30'1514.9
2016-Jun-23 18:33N 36°44' E 001°12'1514.6
2016-Jun-23 17:33N 36°42' E 000°54'1614.9
2016-Jun-23 16:30N 36°39' E 000°34'1414.6
2016-Jun-23 15:33N 36°37' E 000°17'4514.5
2016-Jun-23 12:29N 36°31' W 000°38'22214.9
2016-Jun-22 21:31N 35°59' W 005°11'1617.1
2016-Jun-22 20:33N 35°57' W 005°31'4615.0
2016-Jun-22 17:27N 35°33' W 006°20'1314.2
2016-Jun-22 16:33N 35°24' W 006°31'7514.3
2016-Jun-22 11:18N 34°30' W 007°36'11714.7
2016-Jun-22 03:20N 33°06' W 009°13'1314.7
2016-Jun-22 02:27N 32°57' W 009°24'2714.4
2016-Jun-22 00:33N 32°37' W 009°47'22913.5
2016-Jun-21 07:33N 29°36' W 012°31'3913.1
2016-Jun-21 04:33N 29°04' W 012°57'1312.9
2016-Jun-21 03:32N 28°53' W 013°06'1312.9
2016-Jun-21 02:33N 28°43' W 013°14'1313.1
2016-Jun-21 01:33N 28°32' W 013°22'1413.4
2016-Jun-21 00:32N 28°21' W 013°31'1616.0
2016-Jun-20 23:32N 28°08' W 013°42'1211.9
2016-Jun-20 22:34N 27°59' W 013°50'1413.6
2016-Jun-20 21:33N 27°48' W 013°59'1313.4
2016-Jun-20 20:33N 27°37' W 014°09'1313.4
2016-Jun-20 19:33N 27°26' W 014°18'1313.0
2016-Jun-20 18:31N 27°16' W 014°27'  
Track history (hours):
 
Tides and Currents Weather Stations Pressure Air Temp Water Temp Dewpoint Dewpoint Depression Visibility Wind Speed Wind Dir Waves Ship Positions

Wardeh

Last reported at 2016-Jun-25 18:24 UTC. Time now 2016-Jun-29 16:29 UTC.
Position N 36°33' E 015°46'.

; draft 7 m.

Type: Cargo ship. MMSI: 450522000.

Date/timePositionNaut miles runAvg speedWind from/ knotsBaromVisibWave heightAir tempDewpointWater temp
2016-Jun-25 18:24N 36°33' E 015°46'1314.9
2016-Jun-25 17:33N 36°34' E 015°31'1514.9
2016-Jun-25 16:33N 36°34' E 015°12'1514.5
2016-Jun-25 15:33N 36°36' E 014°54'1514.8
2016-Jun-25 14:33N 36°40' E 014°36'1515.2
2016-Jun-25 13:33N 36°43' E 014°18'1615.5
2016-Jun-25 12:33N 36°47' E 013°59'1515.1
2016-Jun-25 11:33N 36°51' E 013°41'1514.9
2016-Jun-25 10:33N 36°54' E 013°23'1514.8
2016-Jun-25 09:33N 36°58' E 013°05'2114.8
2016-Jun-25 08:07N 37°03' E 012°39'815.2
2016-Jun-25 07:33N 37°05' E 012°29'39914.8
2016-Jun-24 04:33N 37°04' E 004°08'1414.0
2016-Jun-24 03:33N 37°02' E 003°51'1614.1
2016-Jun-24 02:25N 36°60' E 003°31'1213.6
2016-Jun-24 01:33N 36°58' E 003°16'1413.3
2016-Jun-24 00:31N 36°56' E 002°59'1414.3
2016-Jun-23 23:33N 36°54' E 002°42'1614.8
2016-Jun-23 22:29N 36°52' E 002°23'1414.6
2016-Jun-23 21:33N 36°50' E 002°06'1514.5
2016-Jun-23 20:29N 36°48' E 001°47'1414.5
2016-Jun-23 19:33N 36°46' E 001°30'1514.9
2016-Jun-23 18:33N 36°44' E 001°12'1514.6
2016-Jun-23 17:33N 36°42' E 000°54'1614.9
2016-Jun-23 16:30N 36°39' E 000°34'1414.6
2016-Jun-23 15:33N 36°37' E 000°17'4514.5
2016-Jun-23 12:29N 36°31' W 000°38'22214.9
2016-Jun-22 21:31N 35°59' W 005°11'1617.1
2016-Jun-22 20:33N 35°57' W 005°31'4615.0
2016-Jun-22 17:27N 35°33' W 006°20'1314.2
2016-Jun-22 16:33N 35°24' W 006°31'7514.3
2016-Jun-22 11:18N 34°30' W 007°36'11714.7
2016-Jun-22 03:20N 33°06' W 009°13'1314.7
2016-Jun-22 02:27N 32°57' W 009°24'2714.4
2016-Jun-22 00:33N 32°37' W 009°47'22913.5
2016-Jun-21 07:33N 29°36' W 012°31'3913.1
2016-Jun-21 04:33N 29°04' W 012°57'1312.9
2016-Jun-21 03:32N 28°53' W 013°06'1312.9
2016-Jun-21 02:33N 28°43' W 013°14'1313.1
2016-Jun-21 01:33N 28°32' W 013°22'1413.4
2016-Jun-21 00:32N 28°21' W 013°31'1616.0
2016-Jun-20 23:32N 28°08' W 013°42'1211.9
2016-Jun-20 22:34N 27°59' W 013°50'1413.6
2016-Jun-20 21:33N 27°48' W 013°59'1313.4
2016-Jun-20 20:33N 27°37' W 014°09'1313.4
2016-Jun-20 19:33N 27°26' W 014°18'1313.0
2016-Jun-20 18:31N 27°16' W 014°27'  

Dump ship's entire track history